Leesburg International Airport
KLEE : now visible

Airfield :











YOU CAN JOIN US ON...

 
LOGIN :

Register | Disclaimer

   EN    FR    IT 

 









Legend :    VFR   Marginal VFR   IFR   Intensive IFR   Very Intensive IFR
Visi :
Ceiling :
>= 8 km
>= 3000ft
5 to 8 km
1000 to 3000 ft
1500m to 5 km
500 to 1000 ft
800 to 1500m
200 to 500 ft
< 800m
< 200 ft
Symbols :   Thunderstorms  Fog  Heavy snow  Heavy precipitations  Wind > 20 kt






- Airport Elevation : 76 ft


KLEE - Leesburg International

CURRENT METAR :
  • 282004Z 28005KT 10SM FEW080 SCT100 BKN120 24/20 A3003 RMK AO2 LTG DSNT ALQDS RAE03 P0002 T02440200

EXPIRED METARs :
  • 281953Z 20003KT 8SM VCTS RA FEW075 BKN100 24/21 A3001 RMK AO2 LTG DSNT ALQDS RAE01B48 TSE51 SLP161 P0011 T02440206
  • 281853Z 31006KT 6SM -TSRA SCT032 BKN070 OVC120 25/22 A3006 RMK AO2 PK WND 21037/1821 LTG DSNT ALQDS RAB19 TSB03 SLP177 P0015 T02500222
  • 281848Z 33009KT 3SM TSRA SCT030 BKN050 OVC100 25/22 A3005 RMK AO2 PK WND 21037/1821 LTG DSNT ALQDS RAB19 TSB03 P0013
  • 281838Z VRB03KT 1SM +TSRA BKN034 BKN043 OVC070 26/21 A3002 RMK AO2 PK WND 21037/1821 LTG DSNT ALQDS RAB19 TSB03 PRESFR P0010 T02560211
  • 281831Z 23012G25KT 1/2SM +TSRA BKN027 BKN044 OVC060 25/20 A3004 RMK AO2 PK WND 21037/1821 LTG DSNT ALQDS RAB19 TSB03 P0006 T02500200
  • 281809Z 14005KT 10SM TS FEW046 SCT060 BKN120 31/24 A3003 RMK AO2 LTG DSNT S-NW TSB03 T03110239
  • 281753Z 12005KT 10SM VCTS FEW060 33/24 A3004 RMK AO2 LTG DSNT ALQDS SLP170 T03280244 10333 20267 58018

TAF KLEE
Valid from the 28 at 18:00 until the 29 at 18:00 UTC


281743Z 2818/2918 16004KT P6SM VCTS SCT030CB SCT080 SCT250
TEMPO 2819/2822 2SM TSRA BKN030CB
FM282300 29003KT P6SM SCT040 BKN250
FM291400 18007KT P6SM SCT030 SCT250
KZJX FIR / North America



MET'MAP, your aeronautical weather chart ! - Copyright ORBIFLY December 2007 - Disclaimer

ORBIFLY MET'MAP TEAM :

Programming & Development : Alexandra Zaïnal
Concept & original design : Baudouin d'Aumeries
Assistance for programming : Marc-Olivier Méhu
Technical & hardware support : Manuel Goepfert

Contact : metmap@orbifly.com




SOURCES & CREDITS :

   NOAA       Earth
Advisory